sensor_id;sensor_type;location;lat;lon;timestamp;P1;durP1;ratioP1;P2;durP2;ratioP2
15393;SDS011;7795;47.986;11.868;2024-02-14T00:00:34;3.37;;;2.57;;
15393;SDS011;7795;47.986;11.868;2024-02-14T00:03:00;3.83;;;2.80;;
15393;SDS011;7795;47.986;11.868;2024-02-14T00:05:26;3.60;;;2.70;;
15393;SDS011;7795;47.986;11.868;2024-02-14T00:07:55;2.90;;;2.50;;
15393;SDS011;7795;47.986;11.868;2024-02-14T00:10:21;3.10;;;2.63;;
15393;SDS011;7795;47.986;11.868;2024-02-14T00:12:46;2.40;;;2.20;;
15393;SDS011;7795;47.986;11.868;2024-02-14T00:15:14;3.90;;;2.37;;
15393;SDS011;7795;47.986;11.868;2024-02-14T00:17:41;4.83;;;3.20;;
15393;SDS011;7795;47.986;11.868;2024-02-14T00:20:08;5.97;;;3.80;;
15393;SDS011;7795;47.986;11.868;2024-02-14T00:22:37;8.53;;;4.80;;
15393;SDS011;7795;47.986;11.868;2024-02-14T00:25:03;6.50;;;3.97;;
15393;SDS011;7795;47.986;11.868;2024-02-14T00:27:29;7.97;;;4.17;;
15393;SDS011;7795;47.986;11.868;2024-02-14T00:29:55;6.50;;;3.97;;
15393;SDS011;7795;47.986;11.868;2024-02-14T00:32:22;5.00;;;2.80;;
15393;SDS011;7795;47.986;11.868;2024-02-14T00:34:48;4.57;;;2.77;;
15393;SDS011;7795;47.986;11.868;2024-02-14T00:37:15;3.93;;;2.90;;
15393;SDS011;7795;47.986;11.868;2024-02-14T00:39:40;3.40;;;2.57;;
15393;SDS011;7795;47.986;11.868;2024-02-14T00:42:06;3.80;;;2.40;;
15393;SDS011;7795;47.986;11.868;2024-02-14T00:44:32;3.67;;;2.50;;
15393;SDS011;7795;47.986;11.868;2024-02-14T00:46:58;3.40;;;2.30;;
15393;SDS011;7795;47.986;11.868;2024-02-14T00:49:28;3.03;;;2.50;;
15393;SDS011;7795;47.986;11.868;2024-02-14T00:51:54;2.90;;;2.43;;
15393;SDS011;7795;47.986;11.868;2024-02-14T00:54:20;6.77;;;2.97;;
15393;SDS011;7795;47.986;11.868;2024-02-14T00:56:46;3.37;;;2.20;;
15393;SDS011;7795;47.986;11.868;2024-02-14T00:59:11;3.53;;;2.00;;
15393;SDS011;7795;47.986;11.868;2024-02-14T01:01:38;4.63;;;2.70;;
15393;SDS011;7795;47.986;11.868;2024-02-14T01:04:03;3.20;;;2.90;;
15393;SDS011;7795;47.986;11.868;2024-02-14T01:06:30;4.13;;;2.37;;
15393;SDS011;7795;47.986;11.868;2024-02-14T01:08:56;4.60;;;2.37;;
15393;SDS011;7795;47.986;11.868;2024-02-14T01:11:22;5.07;;;2.53;;
15393;SDS011;7795;47.986;11.868;2024-02-14T01:13:48;4.37;;;2.40;;
15393;SDS011;7795;47.986;11.868;2024-02-14T01:16:13;4.50;;;2.43;;
15393;SDS011;7795;47.986;11.868;2024-02-14T01:18:39;3.70;;;2.50;;
15393;SDS011;7795;47.986;11.868;2024-02-14T01:21:05;4.93;;;3.00;;
15393;SDS011;7795;47.986;11.868;2024-02-14T01:23:33;2.93;;;2.53;;
15393;SDS011;7795;47.986;11.868;2024-02-14T01:25:59;4.30;;;2.77;;
15393;SDS011;7795;47.986;11.868;2024-02-14T01:28:25;3.27;;;2.70;;
15393;SDS011;7795;47.986;11.868;2024-02-14T01:30:51;3.63;;;2.67;;
15393;SDS011;7795;47.986;11.868;2024-02-14T01:33:17;2.90;;;2.70;;
15393;SDS011;7795;47.986;11.868;2024-02-14T01:35:42;4.90;;;2.80;;
15393;SDS011;7795;47.986;11.868;2024-02-14T01:38:08;3.07;;;2.70;;
15393;SDS011;7795;47.986;11.868;2024-02-14T01:40:35;4.20;;;2.73;;
15393;SDS011;7795;47.986;11.868;2024-02-14T01:43:01;4.23;;;2.93;;
15393;SDS011;7795;47.986;11.868;2024-02-14T01:45:27;4.10;;;2.60;;
15393;SDS011;7795;47.986;11.868;2024-02-14T01:47:52;3.10;;;2.60;;
15393;SDS011;7795;47.986;11.868;2024-02-14T01:50:20;3.47;;;2.60;;
15393;SDS011;7795;47.986;11.868;2024-02-14T01:52:53;3.80;;;2.83;;
15393;SDS011;7795;47.986;11.868;2024-02-14T01:55:21;3.40;;;2.60;;
15393;SDS011;7795;47.986;11.868;2024-02-14T01:57:48;3.70;;;2.60;;
15393;SDS011;7795;47.986;11.868;2024-02-14T02:00:14;5.73;;;3.10;;
15393;SDS011;7795;47.986;11.868;2024-02-14T02:02:43;4.37;;;2.60;;
15393;SDS011;7795;47.986;11.868;2024-02-14T02:05:09;3.47;;;2.20;;
15393;SDS011;7795;47.986;11.868;2024-02-14T02:07:34;3.00;;;2.40;;
15393;SDS011;7795;47.986;11.868;2024-02-14T02:10:04;2.80;;;2.17;;
15393;SDS011;7795;47.986;11.868;2024-02-14T02:12:30;3.43;;;2.63;;
15393;SDS011;7795;47.986;11.868;2024-02-14T02:14:58;4.40;;;2.70;;
15393;SDS011;7795;47.986;11.868;2024-02-14T02:17:24;3.97;;;3.10;;
15393;SDS011;7795;47.986;11.868;2024-02-14T02:19:53;4.83;;;3.10;;
15393;SDS011;7795;47.986;11.868;2024-02-14T02:22:19;4.47;;;2.97;;
15393;SDS011;7795;47.986;11.868;2024-02-14T02:24:46;5.37;;;2.90;;
15393;SDS011;7795;47.986;11.868;2024-02-14T02:27:12;2.77;;;2.37;;
15393;SDS011;7795;47.986;11.868;2024-02-14T02:29:41;3.50;;;2.80;;
15393;SDS011;7795;47.986;11.868;2024-02-14T02:32:11;4.37;;;2.70;;
15393;SDS011;7795;47.986;11.868;2024-02-14T02:34:36;4.17;;;2.83;;
15393;SDS011;7795;47.986;11.868;2024-02-14T02:37:05;5.50;;;2.83;;
15393;SDS011;7795;47.986;11.868;2024-02-14T02:39:34;4.47;;;3.13;;
15393;SDS011;7795;47.986;11.868;2024-02-14T02:42:02;3.93;;;2.93;;
15393;SDS011;7795;47.986;11.868;2024-02-14T02:44:28;3.40;;;2.63;;
15393;SDS011;7795;47.986;11.868;2024-02-14T02:46:54;4.90;;;2.93;;
15393;SDS011;7795;47.986;11.868;2024-02-14T02:49:20;4.10;;;2.60;;
15393;SDS011;7795;47.986;11.868;2024-02-14T02:51:46;4.67;;;2.60;;
15393;SDS011;7795;47.986;11.868;2024-02-14T02:54:13;4.50;;;3.33;;
15393;SDS011;7795;47.986;11.868;2024-02-14T02:56:38;4.87;;;2.73;;
15393;SDS011;7795;47.986;11.868;2024-02-14T02:59:07;5.60;;;3.23;;
15393;SDS011;7795;47.986;11.868;2024-02-14T03:01:34;4.80;;;3.00;;
15393;SDS011;7795;47.986;11.868;2024-02-14T03:04:01;5.00;;;2.70;;
15393;SDS011;7795;47.986;11.868;2024-02-14T03:06:27;4.27;;;2.70;;
15393;SDS011;7795;47.986;11.868;2024-02-14T03:08:53;4.30;;;2.90;;
15393;SDS011;7795;47.986;11.868;2024-02-14T03:11:21;3.57;;;2.53;;
15393;SDS011;7795;47.986;11.868;2024-02-14T03:13:47;5.63;;;3.40;;
15393;SDS011;7795;47.986;11.868;2024-02-14T03:16:15;3.30;;;2.40;;
15393;SDS011;7795;47.986;11.868;2024-02-14T03:18:42;4.20;;;2.53;;
15393;SDS011;7795;47.986;11.868;2024-02-14T03:21:08;5.33;;;3.47;;
15393;SDS011;7795;47.986;11.868;2024-02-14T03:23:34;3.40;;;2.60;;
15393;SDS011;7795;47.986;11.868;2024-02-14T03:25:59;3.30;;;2.27;;
15393;SDS011;7795;47.986;11.868;2024-02-14T03:28:25;3.87;;;2.60;;
15393;SDS011;7795;47.986;11.868;2024-02-14T03:30:52;3.53;;;2.63;;
15393;SDS011;7795;47.986;11.868;2024-02-14T03:33:20;3.53;;;2.67;;
15393;SDS011;7795;47.986;11.868;2024-02-14T03:35:46;4.73;;;3.33;;
15393;SDS011;7795;47.986;11.868;2024-02-14T03:38:12;3.20;;;2.37;;
15393;SDS011;7795;47.986;11.868;2024-02-14T03:40:39;2.60;;;2.37;;
15393;SDS011;7795;47.986;11.868;2024-02-14T03:43:07;3.20;;;2.30;;
15393;SDS011;7795;47.986;11.868;2024-02-14T03:45:36;3.47;;;2.47;;
15393;SDS011;7795;47.986;11.868;2024-02-14T03:48:02;3.40;;;2.20;;
15393;SDS011;7795;47.986;11.868;2024-02-14T03:50:31;4.80;;;2.47;;
15393;SDS011;7795;47.986;11.868;2024-02-14T03:52:57;3.07;;;2.50;;
15393;SDS011;7795;47.986;11.868;2024-02-14T03:55:23;3.07;;;2.77;;
15393;SDS011;7795;47.986;11.868;2024-02-14T03:57:49;4.47;;;2.50;;
15393;SDS011;7795;47.986;11.868;2024-02-14T04:00:16;3.97;;;2.60;;
15393;SDS011;7795;47.986;11.868;2024-02-14T04:02:42;3.50;;;2.47;;
15393;SDS011;7795;47.986;11.868;2024-02-14T04:05:08;2.53;;;2.13;;
15393;SDS011;7795;47.986;11.868;2024-02-14T04:07:35;2.80;;;2.50;;
15393;SDS011;7795;47.986;11.868;2024-02-14T04:10:02;10.10;;;2.93;;
15393;SDS011;7795;47.986;11.868;2024-02-14T04:12:29;8.07;;;2.60;;
15393;SDS011;7795;47.986;11.868;2024-02-14T04:14:54;4.07;;;2.53;;
15393;SDS011;7795;47.986;11.868;2024-02-14T04:17:20;2.93;;;2.40;;
15393;SDS011;7795;47.986;11.868;2024-02-14T04:19:46;2.87;;;2.37;;
15393;SDS011;7795;47.986;11.868;2024-02-14T04:22:11;3.67;;;2.33;;
15393;SDS011;7795;47.986;11.868;2024-02-14T04:24:38;2.83;;;2.40;;
15393;SDS011;7795;47.986;11.868;2024-02-14T04:27:04;3.27;;;2.43;;
15393;SDS011;7795;47.986;11.868;2024-02-14T04:29:30;2.23;;;2.03;;
15393;SDS011;7795;47.986;11.868;2024-02-14T04:31:58;2.83;;;2.03;;
15393;SDS011;7795;47.986;11.868;2024-02-14T04:34:23;4.00;;;2.20;;
15393;SDS011;7795;47.986;11.868;2024-02-14T04:36:49;4.07;;;2.53;;
15393;SDS011;7795;47.986;11.868;2024-02-14T04:39:16;3.10;;;2.23;;
15393;SDS011;7795;47.986;11.868;2024-02-14T04:41:43;3.47;;;2.40;;
15393;SDS011;7795;47.986;11.868;2024-02-14T04:44:09;3.40;;;2.90;;
15393;SDS011;7795;47.986;11.868;2024-02-14T04:46:34;2.80;;;2.37;;
15393;SDS011;7795;47.986;11.868;2024-02-14T04:49:01;3.87;;;2.60;;
15393;SDS011;7795;47.986;11.868;2024-02-14T04:51:29;2.93;;;2.43;;
15393;SDS011;7795;47.986;11.868;2024-02-14T04:53:56;2.67;;;2.37;;
15393;SDS011;7795;47.986;11.868;2024-02-14T04:56:23;3.37;;;2.30;;
15393;SDS011;7795;47.986;11.868;2024-02-14T04:58:51;4.50;;;2.43;;
15393;SDS011;7795;47.986;11.868;2024-02-14T05:01:17;3.83;;;2.77;;
15393;SDS011;7795;47.986;11.868;2024-02-14T05:03:43;3.97;;;2.47;;
15393;SDS011;7795;47.986;11.868;2024-02-14T05:06:09;4.53;;;2.73;;
15393;SDS011;7795;47.986;11.868;2024-02-14T05:08:35;2.47;;;2.20;;
15393;SDS011;7795;47.986;11.868;2024-02-14T05:11:00;4.30;;;2.70;;
15393;SDS011;7795;47.986;11.868;2024-02-14T05:13:26;4.47;;;2.47;;
15393;SDS011;7795;47.986;11.868;2024-02-14T05:15:53;3.00;;;2.20;;
15393;SDS011;7795;47.986;11.868;2024-02-14T05:18:19;2.77;;;2.10;;
15393;SDS011;7795;47.986;11.868;2024-02-14T05:20:44;3.23;;;2.03;;
15393;SDS011;7795;47.986;11.868;2024-02-14T05:23:10;2.20;;;2.00;;
15393;SDS011;7795;47.986;11.868;2024-02-14T05:25:36;3.87;;;2.30;;
15393;SDS011;7795;47.986;11.868;2024-02-14T05:28:02;3.23;;;2.20;;
15393;SDS011;7795;47.986;11.868;2024-02-14T05:30:28;6.30;;;2.87;;
15393;SDS011;7795;47.986;11.868;2024-02-14T05:32:55;4.17;;;2.80;;
15393;SDS011;7795;47.986;11.868;2024-02-14T05:35:21;5.10;;;3.53;;
15393;SDS011;7795;47.986;11.868;2024-02-14T05:37:47;5.37;;;2.87;;
15393;SDS011;7795;47.986;11.868;2024-02-14T05:40:15;6.30;;;3.97;;
15393;SDS011;7795;47.986;11.868;2024-02-14T05:42:41;4.53;;;2.60;;
15393;SDS011;7795;47.986;11.868;2024-02-14T05:45:07;3.90;;;2.33;;
15393;SDS011;7795;47.986;11.868;2024-02-14T05:47:34;5.00;;;2.67;;
15393;SDS011;7795;47.986;11.868;2024-02-14T05:50:02;6.43;;;2.80;;
15393;SDS011;7795;47.986;11.868;2024-02-14T05:52:29;3.57;;;2.90;;
15393;SDS011;7795;47.986;11.868;2024-02-14T05:54:54;3.50;;;2.20;;
15393;SDS011;7795;47.986;11.868;2024-02-14T05:57:20;5.60;;;2.73;;
15393;SDS011;7795;47.986;11.868;2024-02-14T05:59:46;2.97;;;2.37;;
15393;SDS011;7795;47.986;11.868;2024-02-14T06:02:11;5.60;;;2.80;;
15393;SDS011;7795;47.986;11.868;2024-02-14T06:04:37;2.63;;;2.43;;
15393;SDS011;7795;47.986;11.868;2024-02-14T06:07:04;6.90;;;3.63;;
15393;SDS011;7795;47.986;11.868;2024-02-14T06:09:31;9.63;;;4.50;;
15393;SDS011;7795;47.986;11.868;2024-02-14T06:11:57;10.40;;;5.20;;
15393;SDS011;7795;47.986;11.868;2024-02-14T06:14:23;9.43;;;4.50;;
15393;SDS011;7795;47.986;11.868;2024-02-14T06:16:49;13.90;;;4.93;;
15393;SDS011;7795;47.986;11.868;2024-02-14T06:19:14;11.27;;;5.20;;
15393;SDS011;7795;47.986;11.868;2024-02-14T06:21:40;7.30;;;4.30;;
15393;SDS011;7795;47.986;11.868;2024-02-14T06:24:07;5.87;;;3.53;;
15393;SDS011;7795;47.986;11.868;2024-02-14T06:26:34;7.30;;;3.40;;
15393;SDS011;7795;47.986;11.868;2024-02-14T06:29:00;10.67;;;2.93;;
15393;SDS011;7795;47.986;11.868;2024-02-14T06:31:26;5.67;;;3.00;;
15393;SDS011;7795;47.986;11.868;2024-02-14T06:33:51;3.40;;;2.80;;
15393;SDS011;7795;47.986;11.868;2024-02-14T06:36:17;5.80;;;3.20;;
15393;SDS011;7795;47.986;11.868;2024-02-14T06:38:43;5.17;;;3.03;;
15393;SDS011;7795;47.986;11.868;2024-02-14T06:41:12;4.43;;;2.87;;
15393;SDS011;7795;47.986;11.868;2024-02-14T06:43:38;3.57;;;2.50;;
15393;SDS011;7795;47.986;11.868;2024-02-14T06:46:04;5.53;;;2.77;;
15393;SDS011;7795;47.986;11.868;2024-02-14T06:48:30;5.17;;;3.00;;
15393;SDS011;7795;47.986;11.868;2024-02-14T06:50:56;10.53;;;3.60;;
15393;SDS011;7795;47.986;11.868;2024-02-14T06:53:21;4.83;;;2.80;;
15393;SDS011;7795;47.986;11.868;2024-02-14T06:55:47;8.97;;;3.33;;
15393;SDS011;7795;47.986;11.868;2024-02-14T06:58:14;8.47;;;3.83;;
15393;SDS011;7795;47.986;11.868;2024-02-14T07:00:40;8.23;;;3.50;;
15393;SDS011;7795;47.986;11.868;2024-02-14T07:03:06;4.90;;;3.10;;
15393;SDS011;7795;47.986;11.868;2024-02-14T07:05:32;7.93;;;3.17;;
15393;SDS011;7795;47.986;11.868;2024-02-14T07:07:57;8.67;;;3.03;;
15393;SDS011;7795;47.986;11.868;2024-02-14T07:10:23;5.33;;;2.60;;
15393;SDS011;7795;47.986;11.868;2024-02-14T07:12:49;6.60;;;2.67;;
15393;SDS011;7795;47.986;11.868;2024-02-14T07:15:16;5.10;;;2.27;;
15393;SDS011;7795;47.986;11.868;2024-02-14T07:17:42;8.97;;;4.00;;
15393;SDS011;7795;47.986;11.868;2024-02-14T07:20:08;6.60;;;3.80;;
15393;SDS011;7795;47.986;11.868;2024-02-14T07:22:34;13.90;;;4.27;;
15393;SDS011;7795;47.986;11.868;2024-02-14T07:25:00;13.43;;;4.43;;
15393;SDS011;7795;47.986;11.868;2024-02-14T07:27:26;9.97;;;4.87;;
15393;SDS011;7795;47.986;11.868;2024-02-14T07:29:52;8.73;;;5.00;;
15393;SDS011;7795;47.986;11.868;2024-02-14T07:32:19;8.87;;;4.70;;
15393;SDS011;7795;47.986;11.868;2024-02-14T07:34:45;10.97;;;4.93;;
15393;SDS011;7795;47.986;11.868;2024-02-14T07:37:11;11.47;;;4.83;;
15393;SDS011;7795;47.986;11.868;2024-02-14T07:39:37;10.83;;;5.93;;
15393;SDS011;7795;47.986;11.868;2024-02-14T07:42:03;13.40;;;6.80;;
15393;SDS011;7795;47.986;11.868;2024-02-14T07:44:29;13.37;;;7.30;;
15393;SDS011;7795;47.986;11.868;2024-02-14T07:46:55;12.63;;;6.63;;
15393;SDS011;7795;47.986;11.868;2024-02-14T07:49:22;13.80;;;8.40;;
15393;SDS011;7795;47.986;11.868;2024-02-14T07:51:48;11.67;;;8.43;;
15393;SDS011;7795;47.986;11.868;2024-02-14T07:54:14;13.93;;;8.43;;
15393;SDS011;7795;47.986;11.868;2024-02-14T07:56:40;11.57;;;8.33;;
15393;SDS011;7795;47.986;11.868;2024-02-14T07:59:05;15.17;;;7.27;;
15393;SDS011;7795;47.986;11.868;2024-02-14T08:01:31;12.63;;;7.10;;
15393;SDS011;7795;47.986;11.868;2024-02-14T08:03:59;9.43;;;4.90;;
15393;SDS011;7795;47.986;11.868;2024-02-14T08:06:27;9.93;;;5.37;;
15393;SDS011;7795;47.986;11.868;2024-02-14T08:08:52;6.60;;;3.80;;
15393;SDS011;7795;47.986;11.868;2024-02-14T08:11:22;9.20;;;4.00;;
15393;SDS011;7795;47.986;11.868;2024-02-14T08:13:48;11.77;;;4.80;;
15393;SDS011;7795;47.986;11.868;2024-02-14T08:16:14;8.33;;;4.70;;
15393;SDS011;7795;47.986;11.868;2024-02-14T08:18:39;10.43;;;4.33;;
15393;SDS011;7795;47.986;11.868;2024-02-14T08:21:08;14.83;;;5.30;;
15393;SDS011;7795;47.986;11.868;2024-02-14T08:23:36;10.63;;;4.30;;
15393;SDS011;7795;47.986;11.868;2024-02-14T08:26:04;8.10;;;4.10;;
15393;SDS011;7795;47.986;11.868;2024-02-14T08:28:35;8.70;;;3.73;;
15393;SDS011;7795;47.986;11.868;2024-02-14T08:31:01;5.10;;;3.07;;
15393;SDS011;7795;47.986;11.868;2024-02-14T08:33:27;4.50;;;2.37;;
15393;SDS011;7795;47.986;11.868;2024-02-14T08:35:52;4.37;;;2.63;;
15393;SDS011;7795;47.986;11.868;2024-02-14T08:38:22;2.80;;;2.13;;
15393;SDS011;7795;47.986;11.868;2024-02-14T08:40:49;3.10;;;2.30;;
15393;SDS011;7795;47.986;11.868;2024-02-14T08:43:15;3.47;;;2.03;;
15393;SDS011;7795;47.986;11.868;2024-02-14T08:45:41;2.50;;;1.83;;
15393;SDS011;7795;47.986;11.868;2024-02-14T08:48:07;3.60;;;2.27;;
15393;SDS011;7795;47.986;11.868;2024-02-14T08:50:32;2.73;;;2.33;;
15393;SDS011;7795;47.986;11.868;2024-02-14T08:52:58;2.60;;;2.00;;
15393;SDS011;7795;47.986;11.868;2024-02-14T08:55:24;4.87;;;2.00;;
15393;SDS011;7795;47.986;11.868;2024-02-14T08:57:51;3.33;;;2.17;;
15393;SDS011;7795;47.986;11.868;2024-02-14T09:00:17;5.47;;;2.50;;
15393;SDS011;7795;47.986;11.868;2024-02-14T09:02:47;2.77;;;2.07;;
15393;SDS011;7795;47.986;11.868;2024-02-14T09:05:13;4.07;;;2.20;;
15393;SDS011;7795;47.986;11.868;2024-02-14T09:07:39;6.30;;;2.87;;
15393;SDS011;7795;47.986;11.868;2024-02-14T09:10:06;12.77;;;3.30;;
15393;SDS011;7795;47.986;11.868;2024-02-14T09:12:32;6.07;;;3.63;;
15393;SDS011;7795;47.986;11.868;2024-02-14T09:15:00;13.30;;;3.30;;
15393;SDS011;7795;47.986;11.868;2024-02-14T09:17:25;6.00;;;2.77;;
15393;SDS011;7795;47.986;11.868;2024-02-14T09:19:51;6.43;;;2.63;;
15393;SDS011;7795;47.986;11.868;2024-02-14T09:22:17;4.27;;;2.50;;
15393;SDS011;7795;47.986;11.868;2024-02-14T09:24:46;5.93;;;2.27;;
15393;SDS011;7795;47.986;11.868;2024-02-14T09:27:12;3.63;;;2.00;;
15393;SDS011;7795;47.986;11.868;2024-02-14T09:29:37;7.27;;;2.43;;
15393;SDS011;7795;47.986;11.868;2024-02-14T09:32:05;4.80;;;2.07;;
15393;SDS011;7795;47.986;11.868;2024-02-14T09:34:31;2.43;;;1.77;;
15393;SDS011;7795;47.986;11.868;2024-02-14T09:36:56;4.53;;;2.10;;
15393;SDS011;7795;47.986;11.868;2024-02-14T09:39:23;8.83;;;3.00;;
15393;SDS011;7795;47.986;11.868;2024-02-14T09:41:51;4.23;;;1.83;;
15393;SDS011;7795;47.986;11.868;2024-02-14T09:44:19;4.90;;;2.60;;
15393;SDS011;7795;47.986;11.868;2024-02-14T09:46:46;4.33;;;1.93;;
15393;SDS011;7795;47.986;11.868;2024-02-14T09:49:14;3.47;;;1.50;;
15393;SDS011;7795;47.986;11.868;2024-02-14T09:51:43;4.93;;;1.83;;
15393;SDS011;7795;47.986;11.868;2024-02-14T09:54:11;2.13;;;1.30;;
15393;SDS011;7795;47.986;11.868;2024-02-14T09:56:38;3.20;;;1.30;;
15393;SDS011;7795;47.986;11.868;2024-02-14T09:59:04;5.13;;;2.10;;
15393;SDS011;7795;47.986;11.868;2024-02-14T10:01:31;7.70;;;1.93;;
15393;SDS011;7795;47.986;11.868;2024-02-14T10:03:58;6.07;;;1.70;;
15393;SDS011;7795;47.986;11.868;2024-02-14T10:06:25;2.37;;;1.50;;
15393;SDS011;7795;47.986;11.868;2024-02-14T10:08:51;5.23;;;1.70;;
15393;SDS011;7795;47.986;11.868;2024-02-14T10:11:17;4.70;;;1.87;;
15393;SDS011;7795;47.986;11.868;2024-02-14T10:13:46;3.93;;;1.67;;
15393;SDS011;7795;47.986;11.868;2024-02-14T10:16:13;6.50;;;1.70;;
15393;SDS011;7795;47.986;11.868;2024-02-14T10:18:39;3.93;;;1.57;;
15393;SDS011;7795;47.986;11.868;2024-02-14T10:21:05;5.97;;;1.73;;
15393;SDS011;7795;47.986;11.868;2024-02-14T10:23:32;3.37;;;1.60;;
15393;SDS011;7795;47.986;11.868;2024-02-14T10:25:58;6.33;;;3.17;;
15393;SDS011;7795;47.986;11.868;2024-02-14T10:28:24;3.03;;;2.00;;
15393;SDS011;7795;47.986;11.868;2024-02-14T10:30:50;2.87;;;1.80;;
15393;SDS011;7795;47.986;11.868;2024-02-14T10:33:16;7.87;;;2.07;;
15393;SDS011;7795;47.986;11.868;2024-02-14T10:35:42;3.80;;;1.63;;
15393;SDS011;7795;47.986;11.868;2024-02-14T10:38:08;1.83;;;1.70;;
15393;SDS011;7795;47.986;11.868;2024-02-14T10:40:36;3.23;;;1.63;;
15393;SDS011;7795;47.986;11.868;2024-02-14T10:43:07;5.23;;;1.80;;
15393;SDS011;7795;47.986;11.868;2024-02-14T10:45:36;3.27;;;1.60;;
15393;SDS011;7795;47.986;11.868;2024-02-14T10:48:03;1.93;;;1.50;;
15393;SDS011;7795;47.986;11.868;2024-02-14T10:50:32;2.73;;;1.60;;
15393;SDS011;7795;47.986;11.868;2024-02-14T10:53:00;3.67;;;1.73;;
15393;SDS011;7795;47.986;11.868;2024-02-14T10:55:30;2.43;;;1.47;;
15393;SDS011;7795;47.986;11.868;2024-02-14T10:57:59;1.97;;;1.40;;
15393;SDS011;7795;47.986;11.868;2024-02-14T11:00:26;4.43;;;1.87;;
15393;SDS011;7795;47.986;11.868;2024-02-14T11:02:52;2.07;;;1.67;;
15393;SDS011;7795;47.986;11.868;2024-02-14T11:05:19;3.03;;;1.73;;
15393;SDS011;7795;47.986;11.868;2024-02-14T11:07:49;2.90;;;1.83;;
15393;SDS011;7795;47.986;11.868;2024-02-14T11:10:18;3.03;;;1.60;;
15393;SDS011;7795;47.986;11.868;2024-02-14T11:12:46;2.57;;;1.30;;
15393;SDS011;7795;47.986;11.868;2024-02-14T11:15:17;3.40;;;1.80;;
15393;SDS011;7795;47.986;11.868;2024-02-14T11:17:45;2.93;;;1.60;;
15393;SDS011;7795;47.986;11.868;2024-02-14T11:20:12;2.57;;;1.67;;
15393;SDS011;7795;47.986;11.868;2024-02-14T11:22:40;6.13;;;2.10;;
15393;SDS011;7795;47.986;11.868;2024-02-14T11:25:17;2.83;;;1.90;;
15393;SDS011;7795;47.986;11.868;2024-02-14T11:27:44;8.53;;;2.37;;
15393;SDS011;7795;47.986;11.868;2024-02-14T11:30:10;4.70;;;2.00;;
15393;SDS011;7795;47.986;11.868;2024-02-14T11:32:38;2.07;;;1.57;;
15393;SDS011;7795;47.986;11.868;2024-02-14T11:35:07;4.40;;;1.70;;
15393;SDS011;7795;47.986;11.868;2024-02-14T11:37:36;4.43;;;1.70;;
15393;SDS011;7795;47.986;11.868;2024-02-14T11:40:03;6.80;;;2.67;;
15393;SDS011;7795;47.986;11.868;2024-02-14T11:42:32;2.23;;;1.70;;
15393;SDS011;7795;47.986;11.868;2024-02-14T11:44:58;3.80;;;1.87;;
15393;SDS011;7795;47.986;11.868;2024-02-14T11:47:23;2.63;;;1.80;;
15393;SDS011;7795;47.986;11.868;2024-02-14T11:49:51;2.63;;;1.70;;
15393;SDS011;7795;47.986;11.868;2024-02-14T11:52:17;2.80;;;1.77;;
15393;SDS011;7795;47.986;11.868;2024-02-14T11:54:45;3.57;;;1.57;;
15393;SDS011;7795;47.986;11.868;2024-02-14T11:57:16;6.87;;;1.90;;
15393;SDS011;7795;47.986;11.868;2024-02-14T11:59:42;2.10;;;1.73;;
15393;SDS011;7795;47.986;11.868;2024-02-14T12:02:08;3.80;;;1.80;;
15393;SDS011;7795;47.986;11.868;2024-02-14T12:04:33;2.23;;;1.83;;
15393;SDS011;7795;47.986;11.868;2024-02-14T12:07:01;4.60;;;1.73;;
15393;SDS011;7795;47.986;11.868;2024-02-14T12:09:27;4.30;;;1.97;;
15393;SDS011;7795;47.986;11.868;2024-02-14T12:11:53;1.70;;;1.60;;
15393;SDS011;7795;47.986;11.868;2024-02-14T12:14:19;3.30;;;1.50;;
15393;SDS011;7795;47.986;11.868;2024-02-14T12:16:50;4.80;;;1.60;;
15393;SDS011;7795;47.986;11.868;2024-02-14T12:19:15;4.30;;;1.63;;
15393;SDS011;7795;47.986;11.868;2024-02-14T12:21:42;5.17;;;1.70;;
15393;SDS011;7795;47.986;11.868;2024-02-14T12:24:12;2.43;;;1.60;;
15393;SDS011;7795;47.986;11.868;2024-02-14T12:26:39;5.53;;;2.20;;
15393;SDS011;7795;47.986;11.868;2024-02-14T12:29:06;2.77;;;1.80;;
15393;SDS011;7795;47.986;11.868;2024-02-14T12:31:33;2.40;;;1.10;;
15393;SDS011;7795;47.986;11.868;2024-02-14T12:34:00;3.27;;;1.60;;
15393;SDS011;7795;47.986;11.868;2024-02-14T12:36:29;4.53;;;2.10;;
15393;SDS011;7795;47.986;11.868;2024-02-14T12:38:56;1.33;;;1.23;;
15393;SDS011;7795;47.986;11.868;2024-02-14T12:41:23;2.30;;;1.30;;
15393;SDS011;7795;47.986;11.868;2024-02-14T12:43:51;4.97;;;1.90;;
15393;SDS011;7795;47.986;11.868;2024-02-14T12:46:17;6.37;;;2.07;;
15393;SDS011;7795;47.986;11.868;2024-02-14T12:48:43;2.47;;;1.60;;
15393;SDS011;7795;47.986;11.868;2024-02-14T12:51:09;2.90;;;1.30;;
15393;SDS011;7795;47.986;11.868;2024-02-14T12:53:35;4.33;;;1.40;;
15393;SDS011;7795;47.986;11.868;2024-02-14T12:56:01;1.93;;;1.20;;
15393;SDS011;7795;47.986;11.868;2024-02-14T12:58:30;4.20;;;1.20;;
15393;SDS011;7795;47.986;11.868;2024-02-14T13:00:57;1.53;;;0.90;;
15393;SDS011;7795;47.986;11.868;2024-02-14T13:03:23;1.47;;;0.83;;
15393;SDS011;7795;47.986;11.868;2024-02-14T13:05:49;2.67;;;0.90;;
15393;SDS011;7795;47.986;11.868;2024-02-14T13:08:16;0.73;;;0.57;;
15393;SDS011;7795;47.986;11.868;2024-02-14T13:10:42;3.53;;;0.63;;
15393;SDS011;7795;47.986;11.868;2024-02-14T13:13:08;1.67;;;0.80;;
15393;SDS011;7795;47.986;11.868;2024-02-14T13:15:35;1.00;;;0.90;;
15393;SDS011;7795;47.986;11.868;2024-02-14T13:18:01;1.23;;;0.83;;
15393;SDS011;7795;47.986;11.868;2024-02-14T13:20:28;0.73;;;0.73;;
15393;SDS011;7795;47.986;11.868;2024-02-14T13:22:53;0.80;;;0.60;;
15393;SDS011;7795;47.986;11.868;2024-02-14T13:25:19;1.23;;;0.53;;
15393;SDS011;7795;47.986;11.868;2024-02-14T13:27:45;0.63;;;0.63;;
15393;SDS011;7795;47.986;11.868;2024-02-14T13:30:11;0.53;;;0.50;;
15393;SDS011;7795;47.986;11.868;2024-02-14T13:32:38;0.67;;;0.57;;
15393;SDS011;7795;47.986;11.868;2024-02-14T13:35:05;1.07;;;0.83;;
15393;SDS011;7795;47.986;11.868;2024-02-14T13:37:31;2.20;;;0.80;;
15393;SDS011;7795;47.986;11.868;2024-02-14T13:39:58;3.47;;;1.10;;
15393;SDS011;7795;47.986;11.868;2024-02-14T13:42:24;2.67;;;2.00;;
15393;SDS011;7795;47.986;11.868;2024-02-14T13:44:50;5.43;;;3.20;;
15393;SDS011;7795;47.986;11.868;2024-02-14T13:47:19;2.23;;;1.50;;
15393;SDS011;7795;47.986;11.868;2024-02-14T13:49:47;1.80;;;1.30;;
15393;SDS011;7795;47.986;11.868;2024-02-14T13:52:12;1.37;;;0.93;;
15393;SDS011;7795;47.986;11.868;2024-02-14T13:54:40;0.70;;;0.60;;
15393;SDS011;7795;47.986;11.868;2024-02-14T13:57:06;0.87;;;0.80;;
15393;SDS011;7795;47.986;11.868;2024-02-14T13:59:32;2.70;;;0.87;;
15393;SDS011;7795;47.986;11.868;2024-02-14T14:01:58;1.00;;;0.90;;
15393;SDS011;7795;47.986;11.868;2024-02-14T14:04:24;0.93;;;0.60;;
15393;SDS011;7795;47.986;11.868;2024-02-14T14:06:52;1.07;;;0.90;;
15393;SDS011;7795;47.986;11.868;2024-02-14T14:09:20;0.97;;;0.70;;
15393;SDS011;7795;47.986;11.868;2024-02-14T14:11:46;0.70;;;0.60;;
15393;SDS011;7795;47.986;11.868;2024-02-14T14:14:14;0.53;;;0.50;;
15393;SDS011;7795;47.986;11.868;2024-02-14T14:16:43;6.70;;;1.43;;
15393;SDS011;7795;47.986;11.868;2024-02-14T14:19:09;1.37;;;0.80;;
15393;SDS011;7795;47.986;11.868;2024-02-14T14:21:36;7.17;;;1.47;;
15393;SDS011;7795;47.986;11.868;2024-02-14T14:24:05;15.50;;;1.90;;
15393;SDS011;7795;47.986;11.868;2024-02-14T14:26:30;9.97;;;2.07;;
15393;SDS011;7795;47.986;11.868;2024-02-14T14:28:56;7.83;;;1.67;;
15393;SDS011;7795;47.986;11.868;2024-02-14T14:31:22;11.00;;;2.23;;
15393;SDS011;7795;47.986;11.868;2024-02-14T14:33:47;5.33;;;1.63;;
15393;SDS011;7795;47.986;11.868;2024-02-14T14:36:14;12.50;;;2.53;;
15393;SDS011;7795;47.986;11.868;2024-02-14T14:38:40;11.33;;;2.60;;
15393;SDS011;7795;47.986;11.868;2024-02-14T14:41:07;6.70;;;2.00;;